Time;durP1;ratioP1;P1;durP2;ratioP2;P2;SDS_P1;SDS_P2;PMS_P1;PMS_P2;Temp;Humidity;BMP_temperature;BMP_pressure;BME280_temperature;BME280_humidity;BME280_pressure;Samples;Min_cycle;Max_cycle;Signal;HPM_P1;HPM_P2
2021/03/16 00:00:44;;;;;;;94.92;38.35;;;;;;;5.33;99.89;98808.03;1774560;79;21407;-52
2021/03/16 00:03:32;;;;;;;86.50;35.90;;;;;;;5.32;99.90;98806.27;1774811;79;21096;-54
2021/03/16 00:09:03;;;;;;;107.83;36.65;;;;;;;5.38;100.00;98803.32;1785678;78;21874;-51
2021/03/16 00:11:31;;;;;;;107.47;38.53;;;;;;;5.34;100.00;98808.42;1766597;80;21151;-51
2021/03/16 00:13:59;;;;;;;97.85;36.95;;;;;;;5.29;99.60;98801.08;1731013;80;21389;-50
2021/03/16 00:16:27;;;;;;;78.62;35.03;;;;;;;5.23;99.44;98807.56;1732254;80;21009;-49
2021/03/16 00:18:57;;;;;;;90.87;35.08;;;;;;;5.17;99.38;98807.37;1731469;80;21766;-49
2021/03/16 00:21:25;;;;;;;103.60;38.48;;;;;;;5.15;99.45;98802.53;1738823;80;20990;-51
2021/03/16 00:23:53;;;;;;;109.83;39.73;;;;;;;5.14;99.41;98800.80;1732412;80;21573;-51
2021/03/16 00:26:21;;;;;;;96.05;37.15;;;;;;;5.15;99.22;98791.84;1729989;81;21037;-59
2021/03/16 00:28:49;;;;;;;165.70;45.90;;;;;;;5.16;99.11;98786.89;1730720;80;21013;-61
2021/03/16 00:31:17;;;;;;;276.95;59.03;;;;;;;5.17;98.94;98791.33;1730437;80;21041;-59
2021/03/16 00:33:45;;;;;;;295.35;66.53;;;;;;;5.16;98.62;98789.56;1730721;80;21144;-63
2021/03/16 00:36:15;;;;;;;323.95;65.62;;;;;;;5.15;98.39;98785.16;1732017;80;21601;-54
2021/03/16 00:38:45;;;;;;;266.68;57.00;;;;;;;5.13;98.29;98788.38;1732250;80;22202;-54
2021/03/16 00:41:13;;;;;;;168.25;47.67;;;;;;;5.13;98.21;98787.52;1735694;80;21057;-52
2021/03/16 00:43:41;;;;;;;146.60;46.98;;;;;;;5.11;97.96;98792.91;1736209;80;21574;-55
2021/03/16 00:46:09;;;;;;;139.75;41.60;;;;;;;5.09;97.81;98794.79;1731209;80;21541;-53
2021/03/16 00:48:38;;;;;;;85.20;37.50;;;;;;;5.05;97.71;98797.19;1729429;81;21541;-55
2021/03/16 00:51:07;;;;;;;76.90;31.62;;;;;;;5.01;97.67;98791.59;1730934;80;21581;-53
2021/03/16 00:53:36;;;;;;;80.32;33.10;;;;;;;5.00;97.79;98800.52;1735619;80;21188;-53
2021/03/16 00:56:09;;;;;;;161.60;46.37;;;;;;;4.99;97.77;98801.46;1729735;80;21116;-49
2021/03/16 00:58:37;;;;;;;117.25;38.85;;;;;;;4.97;97.73;98798.00;1730162;81;21195;-50
2021/03/16 01:01:06;;;;;;;128.62;42.03;;;;;;;4.97;97.72;98802.01;1729208;80;21618;-50
2021/03/16 01:03:35;;;;;;;115.22;39.78;;;;;;;4.95;97.71;98791.83;1730322;80;22205;-51
2021/03/16 01:06:03;;;;;;;108.50;38.80;;;;;;;4.95;97.71;98793.17;1730748;80;21055;-49
2021/03/16 01:08:31;;;;;;;95.55;36.28;;;;;;;4.95;97.56;98793.17;1725897;80;20962;-49
2021/03/16 01:10:59;;;;;;;78.52;33.33;;;;;;;4.93;97.33;98788.38;1726523;80;21212;-50
2021/03/16 01:13:28;;;;;;;91.90;36.95;;;;;;;4.91;97.25;98784.91;1724969;80;21120;-49
2021/03/16 01:15:56;;;;;;;113.50;38.63;;;;;;;4.87;97.15;98781.48;1726037;80;22333;-50
2021/03/16 01:18:24;;;;;;;83.30;37.60;;;;;;;4.84;97.10;98776.73;1724678;81;21214;-51
2021/03/16 01:20:52;;;;;;;68.95;33.92;;;;;;;4.79;97.10;98771.58;1724672;80;21176;-50
2021/03/16 01:23:20;;;;;;;57.80;32.38;;;;;;;4.75;97.04;98778.02;1724082;80;21196;-50
2021/03/16 01:25:50;;;;;;;49.48;30.97;;;;;;;4.73;97.10;98773.19;1725614;80;21170;-49
2021/03/16 01:28:18;;;;;;;47.60;30.00;;;;;;;4.72;97.04;98777.66;1689617;83;21582;-51
2021/03/16 01:30:46;;;;;;;48.25;29.98;;;;;;;4.71;97.04;98781.27;1693713;82;21064;-51
2021/03/16 01:33:14;;;;;;;43.30;28.47;;;;;;;4.70;97.02;98786.22;1693202;82;21170;-51
2021/03/16 01:35:43;;;;;;;50.83;29.92;;;;;;;4.68;97.00;98780.05;1691600;83;21178;-57
2021/03/16 01:38:11;;;;;;;62.30;33.53;;;;;;;4.65;96.95;98777.53;1693359;83;21138;-52
2021/03/16 01:40:39;;;;;;;66.05;31.23;;;;;;;4.59;96.96;98767.11;1689931;83;21431;-51
2021/03/16 01:43:18;;;;;;;48.40;27.13;;;;;;;4.56;96.84;98765.02;1692863;83;21169;-53
2021/03/16 01:45:47;;;;;;;45.63;28.00;;;;;;;4.51;96.83;98770.55;1702973;83;21047;-52
2021/03/16 01:48:22;;;;;;;44.90;28.35;;;;;;;4.46;96.95;98771.20;1689542;83;21580;-53
2021/03/16 01:50:51;;;;;;;42.58;27.85;;;;;;;4.43;97.08;98776.69;1694092;82;21130;-53
2021/03/16 01:53:19;;;;;;;41.05;27.37;;;;;;;4.39;97.21;98781.74;1700738;83;21219;-52
2021/03/16 01:55:47;;;;;;;54.45;28.25;;;;;;;4.36;97.37;98787.19;1696525;82;21016;-53
2021/03/16 01:58:15;;;;;;;55.85;31.35;;;;;;;4.32;97.48;98788.27;1665543;83;21170;-53
2021/03/16 02:01:01;;;;;;;70.20;33.05;;;;;;;4.28;97.62;98778.64;1691260;82;21254;-52
2021/03/16 02:03:50;;;;;;;100.07;36.70;;;;;;;4.26;97.79;98775.14;1690500;83;20993;-52
2021/03/16 02:06:42;;;;;;;122.67;41.92;;;;;;;4.23;97.89;98778.83;1689073;81;21377;-52
2021/03/16 02:09:43;;;;;;;80.60;35.30;;;;;;;4.24;97.94;98777.02;1819069;77;22497;-54
2021/03/16 02:12:46;;;;;;;54.20;28.10;;;;;;;4.15;97.86;98779.11;1753924;79;21093;-53
2021/03/16 02:15:38;;;;;;;46.95;26.97;;;;;;;4.14;97.79;98784.05;1745657;79;21383;-53
2021/03/16 02:18:29;;;;;;;44.70;27.02;;;;;;;4.10;97.67;98782.89;1744172;80;21006;-49
2021/03/16 02:21:18;;;;;;;41.05;26.12;;;;;;;4.08;97.48;98785.63;1744164;80;20971;-49
2021/03/16 02:24:09;;;;;;;43.40;24.92;;;;;;;4.05;97.37;98784.44;1745820;79;20994;-49
2021/03/16 02:27:11;;;;;;;40.20;24.10;;;;;;;4.03;97.21;98783.61;1747933;79;21021;-48
2021/03/16 02:30:01;;;;;;;49.00;28.15;;;;;;;4.01;97.06;98784.61;1744171;81;21198;-48
2021/03/16 02:32:47;;;;;;;45.73;26.55;;;;;;;3.97;96.92;98786.98;1750061;80;21009;-50
2021/03/16 02:35:34;;;;;;;43.23;25.57;;;;;;;3.96;96.93;98774.59;1750088;80;20993;-49
2021/03/16 02:38:26;;;;;;;46.20;26.75;;;;;;;3.94;96.63;98783.52;1745359;79;21527;-48
2021/03/16 02:41:15;;;;;;;45.80;26.90;;;;;;;3.91;96.68;98786.30;1747333;80;21674;-50
2021/03/16 02:44:01;;;;;;;40.05;24.87;;;;;;;3.89;96.58;98784.63;1746372;80;22274;-49
2021/03/16 02:46:49;;;;;;;41.83;25.65;;;;;;;3.88;96.51;98778.87;1743921;80;20974;-49
2021/03/16 02:49:42;;;;;;;46.42;27.48;;;;;;;3.85;96.41;98783.01;1746888;80;20982;-61
2021/03/16 02:52:28;;;;;;;39.78;24.35;;;;;;;3.81;96.32;98781.37;1714324;81;21013;-61
2021/03/16 02:55:15;;;;;;;40.90;25.23;;;;;;;3.80;96.30;98780.98;1744752;80;21017;-61
2021/03/16 02:58:01;;;;;;;36.80;23.77;;;;;;;3.78;96.28;98781.48;1747596;79;21457;-59
2021/03/16 03:00:48;;;;;;;39.25;24.35;;;;;;;3.76;96.22;98775.35;1716908;80;21001;-61
2021/03/16 03:03:36;;;;;;;37.20;23.80;;;;;;;3.74;96.24;98775.89;1748648;80;21121;-62
2021/03/16 03:06:23;;;;;;;40.52;26.80;;;;;;;3.72;96.28;98773.72;1743461;79;20978;-61
2021/03/16 03:09:11;;;;;;;42.03;25.43;;;;;;;3.67;96.33;98773.46;1736744;79;20987;-60
2021/03/16 03:11:57;;;;;;;40.48;26.85;;;;;;;3.65;96.45;98773.96;1733064;79;21373;-62
2021/03/16 03:14:43;;;;;;;38.80;25.97;;;;;;;3.63;96.59;98781.16;1733348;81;21015;-61
2021/03/16 03:17:29;;;;;;;39.10;25.55;;;;;;;3.63;96.64;98766.50;1733848;79;21153;-54
2021/03/16 03:20:16;;;;;;;42.33;25.72;;;;;;;3.61;96.70;98777.66;1732668;81;21006;-52
2021/03/16 03:23:09;;;;;;;44.18;25.48;;;;;;;3.59;96.76;98771.53;1734517;79;21644;-55
2021/03/16 03:26:05;;;;;;;40.92;24.95;;;;;;;3.54;96.76;98765.50;1735004;79;22883;-55
2021/03/16 03:28:51;;;;;;;41.02;25.05;;;;;;;3.53;96.71;98771.77;1738116;79;21154;-55
2021/03/16 03:31:38;;;;;;;43.17;26.05;;;;;;;3.46;96.69;98770.23;1734210;79;21148;-60
2021/03/16 03:34:25;;;;;;;42.17;26.30;;;;;;;3.39;96.62;98776.73;1735383;79;20971;-62
2021/03/16 03:37:11;;;;;;;39.60;24.63;;;;;;;3.31;96.61;98778.83;1717877;81;20979;-62
2021/03/16 03:39:57;;;;;;;43.25;26.87;;;;;;;3.25;96.57;98784.35;1735791;81;21202;-61
2021/03/16 03:42:43;;;;;;;39.83;24.70;;;;;;;3.20;96.54;98783.67;1717543;80;21141;-62
2021/03/16 03:45:30;;;;;;;37.13;23.83;;;;;;;3.16;96.59;98784.23;1721899;81;21022;-63
2021/03/16 03:48:16;;;;;;;35.15;23.70;;;;;;;3.12;96.55;98782.14;1738651;79;21123;-53
2021/03/16 03:51:04;;;;;;;39.33;25.30;;;;;;;3.07;96.43;98784.09;1736018;79;21114;-53
2021/03/16 03:53:51;;;;;;;37.03;22.75;;;;;;;3.05;96.44;98780.63;1737292;79;22078;-54
2021/03/16 03:56:37;;;;;;;43.90;24.50;;;;;;;3.02;96.39;98778.06;1739604;81;21185;-55
2021/03/16 03:59:24;;;;;;;36.88;23.80;;;;;;;2.98;96.31;98784.41;1732071;81;21153;-56
2021/03/16 04:02:10;;;;;;;36.60;22.73;;;;;;;2.95;96.28;98787.20;1734975;79;21573;-55
2021/03/16 04:04:56;;;;;;;39.75;23.42;;;;;;;2.91;96.21;98781.56;1739166;79;21260;-57
2021/03/16 04:07:43;;;;;;;38.48;23.10;;;;;;;2.87;96.23;98781.25;1730400;81;21206;-63
2021/03/16 04:10:30;;;;;;;36.20;23.47;;;;;;;2.84;96.28;98774.72;1733999;80;21204;-62
2021/03/16 04:13:16;;;;;;;37.10;22.60;;;;;;;2.81;96.35;98766.83;1733667;81;21147;-62
2021/03/16 04:16:03;;;;;;;39.35;24.00;;;;;;;2.79;96.32;98774.02;1734241;81;21180;-65
2021/03/16 04:18:50;;;;;;;36.10;22.30;;;;;;;2.77;96.35;98764.76;1733888;81;21160;-60
2021/03/16 04:21:37;;;;;;;38.63;22.75;;;;;;;2.75;96.36;98771.04;1731510;81;21208;-60
2021/03/16 04:24:23;;;;;;;36.70;23.20;;;;;;;2.75;96.39;98765.25;1748839;81;21551;-61
2021/03/16 04:27:09;;;;;;;39.70;25.50;;;;;;;2.74;96.32;98777.30;1734684;80;21575;-61
2021/03/16 04:29:55;;;;;;;46.35;27.13;;;;;;;2.71;96.37;98777.38;1735535;81;20982;-62
2021/03/16 04:32:41;;;;;;;42.67;24.60;;;;;;;2.68;96.40;98777.50;1734858;81;21187;-60
2021/03/16 04:35:28;;;;;;;43.90;25.35;;;;;;;2.62;96.55;98771.47;1735627;79;21217;-62
2021/03/16 04:38:14;;;;;;;43.30;26.68;;;;;;;2.59;96.63;98773.35;1732952;81;21700;-59
2021/03/16 04:41:00;;;;;;;50.43;29.25;;;;;;;2.56;96.78;98774.34;1736836;79;21726;-60
2021/03/16 04:43:46;;;;;;;56.18;30.72;;;;;;;2.57;96.95;98775.20;1736167;79;21515;-61
2021/03/16 04:46:33;;;;;;;56.65;30.00;;;;;;;2.55;96.95;98780.56;1734674;79;20979;-61
2021/03/16 04:49:19;;;;;;;46.75;26.82;;;;;;;2.52;96.99;98779.35;1733629;79;22195;-60
2021/03/16 04:52:06;;;;;;;46.73;27.32;;;;;;;2.52;97.10;98781.14;1734433;81;20991;-60
2021/03/16 04:54:52;;;;;;;46.60;27.50;;;;;;;2.50;97.11;98777.18;1737801;79;21121;-62
2021/03/16 04:57:38;;;;;;;45.00;26.30;;;;;;;2.48;97.15;98785.69;1703669;82;21475;-62
2021/03/16 05:00:24;;;;;;;44.77;27.15;;;;;;;2.48;97.17;98787.02;1703110;81;21515;-62
2021/03/16 05:03:10;;;;;;;48.68;27.27;;;;;;;2.48;97.22;98784.36;1701579;81;21291;-59
2021/03/16 05:05:57;;;;;;;46.70;25.65;;;;;;;2.49;97.16;98788.75;1702030;82;21013;-58
2021/03/16 05:08:44;;;;;;;44.88;26.52;;;;;;;2.48;97.16;98792.34;1700897;82;21143;-60
2021/03/16 05:11:33;;;;;;;43.48;26.77;;;;;;;2.50;97.17;98791.81;1701595;81;21522;-59
2021/03/16 05:14:18;;;;;;;47.08;27.70;;;;;;;2.51;97.15;98786.93;1758345;79;21661;-59
2021/03/16 05:17:05;;;;;;;49.40;27.50;;;;;;;2.52;97.09;98793.98;1756652;80;21385;-60
2021/03/16 05:19:51;;;;;;;48.58;27.80;;;;;;;2.55;97.05;98792.53;1756495;80;21156;-58
2021/03/16 05:22:37;;;;;;;52.90;27.30;;;;;;;2.57;96.82;98792.05;1759154;80;21611;-62
2021/03/16 05:25:24;;;;;;;52.48;27.20;;;;;;;2.57;96.79;98789.38;1760909;79;21112;-62
2021/03/16 05:28:09;;;;;;;44.70;26.20;;;;;;;2.59;96.68;98795.51;1757650;79;21140;-61
2021/03/16 05:30:56;;;;;;;42.20;25.10;;;;;;;2.61;96.76;98793.69;1761421;79;21163;-60
2021/03/16 05:33:42;;;;;;;43.78;25.25;;;;;;;2.64;96.53;98788.70;1762478;79;20993;-61
2021/03/16 05:36:28;;;;;;;49.93;27.87;;;;;;;2.67;96.56;98790.41;1765983;80;21617;-60
2021/03/16 05:39:14;;;;;;;47.80;26.00;;;;;;;2.68;96.35;98788.16;1759735;80;21500;-59
2021/03/16 05:42:01;;;;;;;49.13;27.98;;;;;;;2.70;96.26;98796.95;1759110;79;21171;-61
2021/03/16 05:44:53;;;;;;;56.73;28.98;;;;;;;2.70;96.31;98788.95;1760997;79;21921;-53
2021/03/16 05:47:42;;;;;;;58.33;31.45;;;;;;;2.73;96.17;98791.53;1757680;80;21207;-50
2021/03/16 05:50:28;;;;;;;67.30;35.25;;;;;;;2.75;96.12;98797.66;1759819;79;21136;-50
2021/03/16 05:53:15;;;;;;;67.62;35.10;;;;;;;2.78;96.15;98801.09;1758643;80;20986;-53
2021/03/16 05:56:01;;;;;;;66.90;34.78;;;;;;;2.81;96.05;98799.64;1758874;79;21844;-52
2021/03/16 05:58:47;;;;;;;64.85;34.15;;;;;;;2.85;96.05;98799.09;1755176;80;21539;-51
2021/03/16 06:01:33;;;;;;;63.68;33.75;;;;;;;2.87;95.94;98802.55;1731709;80;21021;-50
2021/03/16 06:04:19;;;;;;;60.30;31.82;;;;;;;2.90;95.79;98807.79;1758820;80;21026;-53
2021/03/16 06:07:05;;;;;;;59.40;30.80;;;;;;;2.95;95.69;98814.30;1760422;79;21006;-51
2021/03/16 06:09:53;;;;;;;60.15;31.45;;;;;;;2.98;95.58;98813.70;1758824;80;20982;-50
2021/03/16 06:12:42;;;;;;;58.35;29.48;;;;;;;3.03;95.53;98813.08;1750751;79;21184;-54
2021/03/16 06:15:28;;;;;;;57.58;28.50;;;;;;;3.10;95.40;98813.30;1746938;80;21089;-52
2021/03/16 06:18:26;;;;;;;54.88;28.07;;;;;;;3.15;95.13;98814.01;1741225;79;21573;-53
2021/03/16 06:21:21;;;;;;;52.58;26.75;;;;;;;3.22;94.92;98819.11;1741612;80;21010;-53
2021/03/16 06:24:11;;;;;;;46.40;26.10;;;;;;;3.30;94.70;98822.36;1742769;80;21152;-51
2021/03/16 06:26:57;;;;;;;47.15;26.87;;;;;;;3.35;94.45;98817.73;1739024;79;22280;-51
2021/03/16 06:29:46;;;;;;;51.48;27.65;;;;;;;3.42;94.37;98820.61;1742977;80;21151;-49
2021/03/16 06:32:35;;;;;;;45.73;25.17;;;;;;;3.50;94.11;98819.84;1742568;79;21720;-49
2021/03/16 06:35:23;;;;;;;41.60;24.02;;;;;;;3.54;93.49;98831.28;1745471;79;21128;-50
2021/03/16 06:38:10;;;;;;;49.63;27.40;;;;;;;3.57;93.42;98834.70;1744023;79;21167;-49
2021/03/16 06:41:15;;;;;;;50.40;26.33;;;;;;;3.58;93.14;98823.11;1744804;79;21490;-50
2021/03/16 06:44:04;;;;;;;49.35;26.15;;;;;;;3.63;93.19;98828.28;1745612;79;21554;-51
2021/03/16 06:47:00;;;;;;;48.05;25.30;;;;;;;3.66;93.01;98834.34;1747862;79;21152;-50
2021/03/16 06:49:47;;;;;;;64.95;27.25;;;;;;;3.73;92.94;98843.45;1751129;80;21117;-52
2021/03/16 06:52:35;;;;;;;81.05;30.48;;;;;;;3.83;93.11;98846.17;1745389;80;21133;-50
2021/03/16 06:55:21;;;;;;;91.20;31.77;;;;;;;3.93;92.96;98844.91;1748315;79;21207;-51
2021/03/16 06:58:08;;;;;;;100.05;33.05;;;;;;;4.03;92.87;98827.63;1746053;79;21207;-51
2021/03/16 07:01:18;;;;;;;105.92;35.83;;;;;;;4.12;92.61;98837.95;1746429;79;21550;-51
2021/03/16 07:04:19;;;;;;;194.22;45.52;;;;;;;4.22;92.00;98834.93;1748091;79;21534;-50
2021/03/16 07:07:06;;;;;;;171.70;42.80;;;;;;;4.34;91.67;98845.11;1744370;79;21581;-51
2021/03/16 07:09:53;;;;;;;239.63;50.17;;;;;;;4.41;90.62;98839.92;1747017;79;21166;-49
2021/03/16 07:12:39;;;;;;;187.62;44.55;;;;;;;4.49;90.33;98836.50;1743438;79;21164;-50
2021/03/16 07:15:26;;;;;;;112.12;31.90;;;;;;;4.53;89.41;98829.20;1744324;80;22065;-51
2021/03/16 07:18:12;;;;;;;66.42;24.80;;;;;;;4.56;89.07;98842.45;1748737;79;21025;-57
2021/03/16 07:21:01;;;;;;;49.40;22.45;;;;;;;4.57;88.74;98838.38;1749205;79;21228;-52
2021/03/16 07:23:52;;;;;;;43.33;21.68;;;;;;;4.61;88.60;98837.33;1741750;79;21237;-52
2021/03/16 07:26:38;;;;;;;43.40;22.75;;;;;;;4.63;87.83;98835.92;1742074;80;21196;-51
2021/03/16 07:29:24;;;;;;;79.42;27.15;;;;;;;4.64;87.84;98841.22;1745159;79;21575;-54
2021/03/16 07:32:13;;;;;;;88.60;29.50;;;;;;;4.68;87.78;98825.45;1745626;79;21597;-51
2021/03/16 07:35:01;;;;;;;72.67;26.42;;;;;;;4.72;87.61;98825.73;1745390;79;21164;-50
2021/03/16 07:37:49;;;;;;;58.68;23.30;;;;;;;4.79;87.51;98806.77;1739075;79;21391;-52
2021/03/16 07:40:38;;;;;;;40.05;22.37;;;;;;;4.87;87.26;98806.00;1742685;79;21152;-53
2021/03/16 07:43:40;;;;;;;48.13;25.23;;;;;;;4.92;86.96;98806.20;1717759;80;21057;-51
2021/03/16 07:46:43;;;;;;;48.02;25.15;;;;;;;5.05;87.03;98811.88;1747487;80;21193;-51
2021/03/16 07:49:35;;;;;;;36.38;21.50;;;;;;;5.14;86.90;98815.50;1741181;80;21188;-51
2021/03/16 07:52:26;;;;;;;39.00;22.60;;;;;;;5.24;86.46;98812.83;1742558;79;21390;-50
2021/03/16 07:55:27;;;;;;;46.08;21.27;;;;;;;5.33;86.05;98802.69;1749187;79;21657;-61
2021/03/16 07:58:15;;;;;;;34.65;20.00;;;;;;;5.41;85.89;98797.85;1746081;79;21537;-56
2021/03/16 08:01:07;;;;;;;37.50;20.25;;;;;;;5.49;85.75;98803.73;1745223;79;21315;-58
2021/03/16 08:04:10;;;;;;;37.23;20.60;;;;;;;5.57;85.18;98795.36;1748997;79;21123;-63
2021/03/16 08:06:59;;;;;;;;;;;;;;;5.61;85.11;98805.85;1750180;79;21389;-64
2021/03/16 08:09:51;;;;;;;46.60;21.60;;;;;;;5.69;84.94;98796.99;1745124;79;20245;-63
2021/03/16 08:12:37;;;;;;;35.52;19.52;;;;;;;5.78;84.77;98784.54;1752355;79;21100;-65
2021/03/16 08:15:23;;;;;;;37.05;20.70;;;;;;;5.88;84.32;98798.36;1767575;78;21593;-53
2021/03/16 08:18:14;;;;;;;27.70;17.57;;;;;;;5.92;83.89;98798.66;1766180;78;21021;-63
2021/03/16 08:21:14;;;;;;;31.48;18.95;;;;;;;5.95;83.23;98798.97;1769133;78;21276;-57
2021/03/16 08:24:10;;;;;;;34.75;19.70;;;;;;;6.00;83.38;98799.63;1741550;80;21140;-59
2021/03/16 08:26:57;;;;;;;35.78;19.55;;;;;;;6.08;83.21;98800.14;1770324;78;21151;-59
2021/03/16 08:29:50;;;;;;;35.33;20.80;;;;;;;6.15;83.07;98806.06;1768630;80;20987;-60
2021/03/16 08:32:36;;;;;;;66.57;25.82;;;;;;;6.21;83.01;98803.96;1768990;78;21140;-60
2021/03/16 08:35:24;;;;;;;88.35;31.52;;;;;;;6.31;82.81;98805.73;1773411;78;21254;-52
2021/03/16 08:38:13;;;;;;;63.58;25.75;;;;;;;6.40;82.89;98801.28;1770769;78;21299;-51
2021/03/16 08:41:16;;;;;;;49.80;24.65;;;;;;;6.48;82.76;98792.86;1691265;81;21305;-54
2021/03/16 08:44:03;;;;;;;80.70;29.30;;;;;;;6.59;82.50;98793.67;1734003;80;21068;-53
2021/03/16 08:46:50;;;;;;;114.52;33.95;;;;;;;6.67;82.01;98792.36;1748191;80;21125;-57
2021/03/16 08:49:43;;;;;;;64.37;26.95;;;;;;;6.72;81.61;98791.66;1732961;80;21447;-57
2021/03/16 08:52:29;;;;;;;71.70;28.67;;;;;;;6.75;80.87;98794.16;1732599;80;21017;-60
2021/03/16 08:55:25;;;;;;;50.55;24.18;;;;;;;6.75;80.66;98794.16;1746548;81;20962;-57
2021/03/16 08:58:00;;;;;;;43.68;22.90;;;;;;;6.86;80.36;98796.30;1814264;77;22923;-53
2021/03/16 09:00:48;;;;;;;35.60;21.25;;;;;;;6.83;80.23;98796.00;1787384;78;20978;-55
2021/03/16 09:03:35;;;;;;;35.78;21.20;;;;;;;6.91;80.06;98798.75;1787504;79;21370;-55
2021/03/16 09:06:21;;;;;;;35.40;20.95;;;;;;;6.95;79.86;98793.17;1791295;78;21707;-55
2021/03/16 09:09:08;;;;;;;43.65;22.25;;;;;;;6.98;79.58;98793.50;1789228;78;21417;-59
2021/03/16 09:11:55;;;;;;;37.20;21.25;;;;;;;6.98;79.44;98798.86;1788001;78;20990;-60
2021/03/16 09:14:41;;;;;;;37.20;20.62;;;;;;;6.97;79.03;98793.94;1788282;78;20985;-53
2021/03/16 09:17:35;;;;;;;58.17;23.47;;;;;;;6.94;78.85;98795.45;1787900;78;21956;-56
2021/03/16 09:20:30;;;;;;;133.75;31.40;;;;;;;6.95;79.12;98795.84;1745657;81;21582;-61
2021/03/16 09:23:17;;;;;;;79.53;24.25;;;;;;;6.99;79.32;98807.29;1723757;81;20996;-53
2021/03/16 09:26:08;;;;;;;41.92;20.90;;;;;;;7.06;79.40;98800.66;1726599;80;21091;-60
2021/03/16 09:28:55;;;;;;;39.60;21.15;;;;;;;7.09;79.56;98798.70;1728267;80;21586;-65
2021/03/16 09:31:44;;;;;;;38.90;23.77;;;;;;;7.16;79.34;98804.61;1730634;81;21231;-62
2021/03/16 09:34:31;;;;;;;38.83;23.12;;;;;;;7.21;78.85;98801.22;1742405;80;21795;-50
2021/03/16 09:37:18;;;;;;;35.92;21.20;;;;;;;7.28;78.65;98794.58;1729344;81;21022;-55
2021/03/16 09:40:05;;;;;;;35.38;19.50;;;;;;;7.32;78.38;98781.41;1841564;76;22693;-53
2021/03/16 09:42:46;;;;;;;37.85;20.68;;;;;;;7.32;78.32;98792.13;1821224;77;21025;-54
2021/03/16 09:45:18;;;;;;;35.98;20.17;;;;;;;7.37;78.17;98798.60;1759414;80;21297;-58
2021/03/16 09:47:47;;;;;;;32.60;20.65;;;;;;;7.41;78.19;98806.89;1757513;80;21633;-60
2021/03/16 09:50:23;;;;;;;31.55;21.82;;;;;;;7.49;78.09;98793.92;1787196;78;21069;-65
2021/03/16 09:53:05;;;;;;;37.88;22.02;;;;;;;7.53;77.85;98799.52;1768404;79;21568;-64
2021/03/16 09:55:34;;;;;;;40.50;23.27;;;;;;;7.55;77.68;98799.44;1768758;79;20989;-56
2021/03/16 09:58:25;;;;;;;29.98;19.87;;;;;;;7.59;77.68;98802.35;1798957;77;22757;-59
2021/03/16 10:00:54;;;;;;;36.33;20.55;;;;;;;7.50;77.46;98798.33;1732371;80;20989;-57
2021/03/16 10:03:24;;;;;;;33.75;20.02;;;;;;;7.41;77.27;98812.73;1711008;81;21283;-53
2021/03/16 10:06:07;;;;;;;38.50;20.20;;;;;;;7.29;77.58;98815.55;1734750;81;21072;-58
2021/03/16 10:08:37;;;;;;;32.93;18.90;;;;;;;7.16;78.23;98822.51;1720251;81;21069;-62
2021/03/16 10:11:06;;;;;;;30.27;18.75;;;;;;;7.05;78.94;98817.70;1706278;81;20978;-59
2021/03/16 10:13:41;;;;;;;32.38;18.85;;;;;;;7.00;79.27;98823.28;1734109;81;21049;-63
2021/03/16 10:16:19;;;;;;;40.40;21.62;;;;;;;6.95;79.46;98829.83;1711844;81;21419;-56
2021/03/16 10:18:49;;;;;;;71.12;23.15;;;;;;;6.92;79.89;98832.64;1732845;81;21093;-59
2021/03/16 10:21:29;;;;;;;46.33;21.60;;;;;;;6.91;80.14;98828.23;1713656;81;21382;-60
2021/03/16 10:24:04;;;;;;;51.40;22.22;;;;;;;6.88;80.10;98828.41;1719027;81;21113;-55
2021/03/16 10:26:33;;;;;;;46.33;22.07;;;;;;;6.90;80.19;98831.87;1716011;81;21431;-57
2021/03/16 10:29:12;;;;;;;102.58;30.65;;;;;;;6.92;80.03;98824.61;1734822;81;21463;-56
2021/03/16 10:31:41;;;;;;;76.37;25.02;;;;;;;6.93;79.97;98821.00;1713068;81;21128;-58
2021/03/16 10:34:11;;;;;;;56.45;21.60;;;;;;;6.98;79.95;98817.63;1710835;81;21204;-56
2021/03/16 10:36:39;;;;;;;34.63;20.55;;;;;;;7.02;79.71;98817.84;1730239;81;21644;-51
2021/03/16 10:39:10;;;;;;;34.38;19.30;;;;;;;7.07;79.56;98813.97;1711590;81;21176;-60
2021/03/16 10:41:40;;;;;;;28.38;17.85;;;;;;;7.14;79.28;98823.94;1730673;81;21641;-57
2021/03/16 10:44:09;;;;;;;25.20;15.83;;;;;;;7.20;79.07;98813.37;1710190;81;21200;-56
2021/03/16 10:46:38;;;;;;;23.02;16.00;;;;;;;7.25;78.42;98828.27;1736592;81;21223;-60
2021/03/16 10:49:07;;;;;;;32.65;17.73;;;;;;;7.28;78.34;98821.87;1711003;81;21813;-56
2021/03/16 10:51:35;;;;;;;34.98;18.70;;;;;;;7.27;78.43;98818.32;1704714;81;21120;-64
2021/03/16 10:54:04;;;;;;;35.55;17.85;;;;;;;7.30;78.48;98822.20;1712530;81;22294;-51
2021/03/16 10:56:32;;;;;;;26.17;17.77;;;;;;;7.34;78.50;98806.31;1728986;81;21234;-51
2021/03/16 10:59:01;;;;;;;27.67;15.80;;;;;;;7.39;78.40;98808.77;1709636;81;21600;-50
2021/03/16 11:01:30;;;;;;;32.42;17.45;;;;;;;7.44;78.44;98796.45;1725510;82;21224;-54
2021/03/16 11:03:58;;;;;;;27.00;17.92;;;;;;;7.49;78.53;98790.38;1710710;81;21191;-54
2021/03/16 11:06:29;;;;;;;32.45;17.73;;;;;;;7.57;78.67;98801.58;1725836;82;22256;-59
2021/03/16 11:08:57;;;;;;;27.90;16.50;;;;;;;7.67;78.65;98794.77;1687956;81;21183;-61
2021/03/16 11:11:26;;;;;;;33.05;17.23;;;;;;;7.77;78.58;98785.25;1721560;81;21295;-55
2021/03/16 11:13:55;;;;;;;28.80;19.00;;;;;;;7.83;78.54;98782.25;1709415;81;21183;-52
2021/03/16 11:16:23;;;;;;;29.45;18.02;;;;;;;7.86;78.60;98780.73;1696401;82;21222;-53
2021/03/16 11:18:54;;;;;;;29.18;17.92;;;;;;;7.88;78.47;98785.55;1724497;82;21488;-57
2021/03/16 11:21:24;;;;;;;31.90;21.05;;;;;;;7.86;78.44;98774.02;1707024;81;21153;-60
2021/03/16 11:23:54;;;;;;;35.50;21.50;;;;;;;7.86;78.33;98771.33;1723875;82;21061;-60
2021/03/16 11:26:25;;;;;;;32.47;20.30;;;;;;;7.86;78.15;98775.36;1679734;80;21144;-58
2021/03/16 11:28:54;;;;;;;29.70;19.35;;;;;;;7.85;78.18;98785.71;1668978;83;21235;-53
2021/03/16 11:31:21;;;;;;;24.63;16.40;;;;;;;7.85;78.26;98796.45;1669029;83;21397;-53
2021/03/16 11:34:09;;;;;;;28.90;18.62;;;;;;;7.83;78.28;98782.25;1698172;81;21030;-52
2021/03/16 11:36:56;;;;;;;32.95;19.60;;;;;;;7.81;78.26;98768.03;1682012;82;21605;-52
2021/03/16 11:39:44;;;;;;;28.30;18.85;;;;;;;7.83;77.72;98772.86;1682369;82;21178;-55
2021/03/16 11:42:31;;;;;;;34.18;19.77;;;;;;;7.83;76.88;98767.97;1682679;82;21181;-53
2021/03/16 11:45:17;;;;;;;32.45;19.90;;;;;;;7.82;77.27;98772.44;1681701;82;21281;-52
2021/03/16 11:48:05;;;;;;;28.45;19.10;;;;;;;7.90;77.19;98777.89;1687092;82;21171;-53
2021/03/16 11:50:51;;;;;;;32.45;19.40;;;;;;;7.98;76.61;98762.20;1684521;82;21040;-57
2021/03/16 11:53:38;;;;;;;31.27;18.23;;;;;;;8.02;76.33;98765.13;1682975;82;21540;-56
2021/03/16 11:56:24;;;;;;;31.40;18.20;;;;;;;8.03;76.38;98761.48;1681272;82;21604;-64
2021/03/16 11:59:11;;;;;;;31.75;18.80;;;;;;;8.02;76.60;98765.98;1696631;82;22054;-56
2021/03/16 12:01:57;;;;;;;28.77;17.30;;;;;;;8.02;76.84;98767.80;1681579;82;21606;-56
2021/03/16 12:04:43;;;;;;;34.80;19.52;;;;;;;7.99;77.20;98765.27;1679040;82;21178;-56
2021/03/16 12:07:31;;;;;;;28.05;18.02;;;;;;;7.98;77.34;98763.55;1680306;84;21055;-56
2021/03/16 12:10:19;;;;;;;33.63;19.00;;;;;;;8.03;77.38;98761.48;1683975;82;21053;-57
2021/03/16 12:13:05;;;;;;;30.35;19.15;;;;;;;8.07;77.42;98754.98;1680722;84;21471;-56
2021/03/16 12:15:51;;;;;;;26.73;17.62;;;;;;;8.12;77.47;98748.89;1681911;84;21020;-57
2021/03/16 12:18:37;;;;;;;38.28;17.50;;;;;;;8.17;77.32;98756.20;1684570;82;21169;-58
2021/03/16 12:21:24;;;;;;;29.75;16.82;;;;;;;8.20;77.27;98757.84;1684816;84;21242;-53
2021/03/16 12:24:12;;;;;;;35.38;18.30;;;;;;;8.28;77.01;98761.84;1679516;82;21253;-56
2021/03/16 12:26:58;;;;;;;24.35;16.97;;;;;;;8.37;77.00;98762.70;1677422;82;21273;-52
2021/03/16 12:29:44;;;;;;;24.50;15.63;;;;;;;8.40;76.06;98766.53;1681879;83;21232;-59
2021/03/16 12:32:31;;;;;;;27.05;16.57;;;;;;;8.40;76.04;98774.59;1680982;82;21160;-62
2021/03/16 12:35:17;;;;;;;34.90;17.80;;;;;;;8.37;76.05;98773.44;1679605;82;21140;-59
2021/03/16 12:38:04;;;;;;;29.55;19.45;;;;;;;8.35;76.27;98768.58;1681306;82;21187;-59